Time;durP1;ratioP1;P1;durP2;ratioP2;P2;SDS_P1;SDS_P2;PMS_P1;PMS_P2;Temp;Humidity;BMP_temperature;BMP_pressure;BME280_temperature;BME280_humidity;BME280_pressure;Samples;Min_cycle;Max_cycle;Signal;HPM_P1;HPM_P2
2024/01/19 00:00:34;;;;;;;4.57;2.53;;;;;;;7.89;nan;98471.53;5098364;28;20265;-68
2024/01/19 00:03:01;;;;;;;3.23;1.87;;;;;;;7.89;nan;98466.44;5098616;28;20200;-68
2024/01/19 00:05:27;;;;;;;5.27;3.63;;;;;;;7.92;nan;98462.06;5105303;28;20210;-68
2024/01/19 00:07:54;;;;;;;2.50;2.30;;;;;;;7.90;nan;98457.91;5096333;28;20253;-68
2024/01/19 00:10:22;;;;;;;1.93;1.87;;;;;;;8.00;nan;98472.03;5096830;28;20261;-68
2024/01/19 00:12:49;;;;;;;2.87;2.60;;;;;;;7.88;nan;98452.84;5102606;28;20212;-68
2024/01/19 00:15:16;;;;;;;8.53;3.67;;;;;;;7.95;nan;98443.25;5099697;28;20581;-69
2024/01/19 00:17:42;;;;;;;3.63;3.20;;;;;;;7.94;nan;98416.09;5101067;28;20635;-68
2024/01/19 00:20:11;;;;;;;6.00;3.80;;;;;;;7.87;nan;98392.50;5101329;28;20199;-68
2024/01/19 00:22:37;;;;;;;2.43;2.33;;;;;;;7.97;nan;98405.78;5097662;28;20621;-68
2024/01/19 00:25:05;;;;;;;5.37;3.50;;;;;;;8.05;nan;98403.78;5104303;28;20624;-69
2024/01/19 00:27:33;;;;;;;8.50;3.80;;;;;;;8.11;nan;98418.84;5097636;28;20195;-68
2024/01/19 00:30:00;;;;;;;2.60;2.37;;;;;;;8.13;nan;98418.81;5096153;28;20276;-68
2024/01/19 00:32:26;;;;;;;4.80;4.50;;;;;;;8.21;nan;98419.34;5103174;28;20195;-68
2024/01/19 00:34:53;;;;;;;4.63;3.53;;;;;;;8.25;nan;98409.00;5100065;28;20203;-68
2024/01/19 00:37:20;;;;;;;4.73;3.30;;;;;;;8.29;nan;98400.38;5100855;28;20198;-68
2024/01/19 00:39:46;;;;;;;8.00;2.23;;;;;;;8.36;nan;98408.63;5103388;28;20251;-68
2024/01/19 00:42:13;;;;;;;3.53;3.00;;;;;;;8.42;nan;98418.63;5100648;28;20245;-68
2024/01/19 00:44:41;;;;;;;3.37;3.07;;;;;;;8.42;nan;98406.69;5091329;28;20195;-68
2024/01/19 00:47:08;;;;;;;3.73;3.47;;;;;;;8.47;nan;98398.00;5102851;28;20210;-68
2024/01/19 00:49:34;;;;;;;2.50;2.40;;;;;;;8.41;nan;98379.47;5100920;28;20194;-68
2024/01/19 00:52:01;;;;;;;3.37;2.87;;;;;;;8.52;nan;98383.34;5100551;28;20268;-68
2024/01/19 00:54:28;;;;;;;3.10;2.77;;;;;;;8.49;nan;98373.25;5099297;28;20641;-68
2024/01/19 00:56:55;;;;;;;2.47;2.43;;;;;;;8.51;nan;98372.28;5101542;28;20195;-68
2024/01/19 00:59:21;;;;;;;4.43;2.50;;;;;;;8.46;nan;98373.38;5104756;28;20620;-68
2024/01/19 01:01:49;;;;;;;2.60;2.37;;;;;;;8.43;nan;98377.69;5091170;28;20195;-68
2024/01/19 01:04:17;;;;;;;5.50;3.10;;;;;;;8.50;nan;98373.19;5098066;28;20195;-68
2024/01/19 01:06:44;;;;;;;2.57;2.37;;;;;;;8.55;nan;98370.47;5107485;28;20213;-68
2024/01/19 01:09:11;;;;;;;3.50;3.30;;;;;;;8.50;nan;98374.94;5093759;28;20199;-68
2024/01/19 01:11:38;;;;;;;4.03;3.67;;;;;;;8.55;nan;98355.13;5099395;28;20210;-68
2024/01/19 01:14:04;;;;;;;4.37;4.07;;;;;;;8.59;nan;98361.81;5098446;28;20629;-68
2024/01/19 01:16:31;;;;;;;3.53;3.23;;;;;;;8.59;nan;98377.13;5100715;28;20222;-69
2024/01/19 01:18:59;;;;;;;2.77;2.37;;;;;;;8.48;nan;98364.75;5104467;28;20195;-68
2024/01/19 01:21:26;;;;;;;3.10;3.00;;;;;;;8.49;nan;98357.94;5099376;28;20575;-68
2024/01/19 01:23:53;;;;;;;3.33;3.00;;;;;;;8.50;nan;98364.72;5100605;28;20611;-67
2024/01/19 01:26:19;;;;;;;3.43;2.63;;;;;;;8.37;nan;98351.56;5098886;28;20269;-68
2024/01/19 01:28:46;;;;;;;2.67;2.57;;;;;;;8.37;nan;98351.56;5100360;28;20199;-67
2024/01/19 01:31:13;;;;;;;3.63;2.83;;;;;;;8.37;nan;98352.38;5091561;28;20191;-68
2024/01/19 01:33:39;;;;;;;3.70;3.33;;;;;;;8.34;nan;98339.75;5101494;28;20195;-68
2024/01/19 01:36:08;;;;;;;2.20;2.10;;;;;;;8.41;nan;98343.72;5097017;28;20264;-68
2024/01/19 01:38:34;;;;;;;5.53;2.53;;;;;;;8.46;nan;98343.56;5107020;28;20256;-68
2024/01/19 01:41:01;;;;;;;1.73;1.63;;;;;;;8.50;nan;98341.72;5099913;28;20195;-68
2024/01/19 01:43:28;;;;;;;2.40;2.30;;;;;;;8.47;nan;98337.53;5091836;28;20198;-67
2024/01/19 01:45:55;;;;;;;3.30;2.43;;;;;;;8.47;nan;98329.03;5105990;28;20237;-68
2024/01/19 01:48:24;;;;;;;2.60;2.50;;;;;;;8.48;nan;98328.16;5098316;28;20243;-68
2024/01/19 01:50:51;;;;;;;2.37;2.27;;;;;;;8.52;nan;98328.00;5098941;28;20208;-68
2024/01/19 01:53:21;;;;;;;5.33;4.67;;;;;;;8.53;nan;98331.38;5095452;28;20200;-68
2024/01/19 01:55:48;;;;;;;1.90;1.90;;;;;;;8.56;nan;98333.81;5101143;28;20198;-68
2024/01/19 01:58:15;;;;;;;3.37;1.93;;;;;;;8.58;nan;98337.97;5106319;28;20199;-68
2024/01/19 02:00:43;;;;;;;6.90;2.47;;;;;;;8.62;nan;98351.47;5096235;28;20196;-67
2024/01/19 02:03:10;;;;;;;2.60;2.43;;;;;;;8.60;nan;98332.78;5104103;28;20199;-68
2024/01/19 02:05:37;;;;;;;4.83;2.07;;;;;;;8.45;nan;98341.91;5099013;28;20693;-68
2024/01/19 02:08:04;;;;;;;8.03;2.67;;;;;;;8.53;nan;98357.75;5105501;28;20259;-69
2024/01/19 02:10:32;;;;;;;2.40;1.90;;;;;;;8.56;nan;98351.69;5101153;28;20195;-68
2024/01/19 02:12:59;;;;;;;2.30;2.03;;;;;;;8.49;nan;98358.78;5108490;28;20627;-68
2024/01/19 02:15:26;;;;;;;1.87;1.87;;;;;;;8.30;nan;98350.94;5104995;28;20663;-68
2024/01/19 02:17:54;;;;;;;4.33;3.67;;;;;;;8.38;nan;98359.16;5097309;28;20294;-67
2024/01/19 02:20:21;;;;;;;2.90;2.70;;;;;;;8.40;nan;98359.94;5110725;28;20555;-68
2024/01/19 02:22:49;;;;;;;3.67;3.37;;;;;;;8.48;nan;98369.03;5105610;28;20207;-67
2024/01/19 02:25:17;;;;;;;5.43;2.30;;;;;;;8.50;nan;98378.28;5098092;28;20196;-68
2024/01/19 02:27:44;;;;;;;2.80;2.10;;;;;;;8.44;nan;98388.75;5103820;28;20215;-68
2024/01/19 02:30:12;;;;;;;5.33;2.13;;;;;;;8.41;nan;98383.75;5103956;28;20203;-68
2024/01/19 02:32:38;;;;;;;1.97;1.87;;;;;;;8.33;nan;98370.44;5093887;28;20628;-67
2024/01/19 02:35:06;;;;;;;2.87;2.37;;;;;;;8.41;nan;98369.25;5105232;28;20251;-68
2024/01/19 02:37:33;;;;;;;1.87;1.83;;;;;;;8.34;nan;98377.19;5093577;28;20268;-67
2024/01/19 02:40:00;;;;;;;1.90;1.80;;;;;;;8.35;nan;98384.81;5103759;28;20201;-67
2024/01/19 02:42:31;;;;;;;1.97;1.80;;;;;;;8.39;nan;98399.16;5098448;28;20205;-68
2024/01/19 02:44:59;;;;;;;2.47;2.47;;;;;;;8.34;nan;98378.03;5105107;28;20206;-67
2024/01/19 02:47:27;;;;;;;2.10;2.00;;;;;;;8.30;nan;98396.91;5101734;28;20273;-68
2024/01/19 02:49:54;;;;;;;2.33;2.17;;;;;;;8.33;nan;98396.81;5107243;28;20252;-68
2024/01/19 02:52:20;;;;;;;1.63;1.60;;;;;;;8.26;nan;98385.13;5097862;28;20210;-68
2024/01/19 02:54:47;;;;;;;4.30;1.97;;;;;;;8.37;nan;98407.72;5109105;28;20199;-67
2024/01/19 02:57:14;;;;;;;3.13;3.03;;;;;;;8.34;nan;98416.34;5094546;28;20241;-68
2024/01/19 02:59:42;;;;;;;3.13;2.93;;;;;;;8.30;nan;98426.75;5101683;28;20195;-67
2024/01/19 03:02:08;;;;;;;4.73;2.63;;;;;;;8.28;nan;98439.53;5112249;28;20671;-68
2024/01/19 03:04:35;;;;;;;3.77;3.53;;;;;;;8.34;nan;98436.75;5106278;28;20248;-68
2024/01/19 03:07:02;;;;;;;3.53;3.20;;;;;;;8.32;nan;98437.72;5103876;28;20643;-68
2024/01/19 03:09:29;;;;;;;2.20;2.07;;;;;;;8.25;nan;98434.53;5101148;28;20736;-68
2024/01/19 03:11:55;;;;;;;2.17;2.07;;;;;;;8.21;nan;98430.41;5107619;28;20675;-67
2024/01/19 03:14:22;;;;;;;2.90;1.93;;;;;;;8.22;nan;98433.78;5097553;28;20203;-68
2024/01/19 03:16:51;;;;;;;2.13;1.93;;;;;;;8.24;nan;98437.16;5104315;28;20222;-68
2024/01/19 03:19:18;;;;;;;3.60;1.87;;;;;;;8.26;nan;98436.19;5096031;28;20211;-68
2024/01/19 03:21:45;;;;;;;1.93;1.83;;;;;;;8.27;nan;98426.81;5095498;28;20253;-68
2024/01/19 03:24:11;;;;;;;2.50;2.33;;;;;;;8.30;nan;98431.84;5096913;28;20198;-68
2024/01/19 03:26:39;;;;;;;2.53;2.43;;;;;;;8.28;nan;98434.44;5101816;28;20675;-69
2024/01/19 03:29:06;;;;;;;4.80;3.23;;;;;;;8.30;nan;98427.53;5103697;28;20300;-67
2024/01/19 03:31:32;;;;;;;2.80;2.33;;;;;;;8.24;nan;98416.72;5104310;28;20199;-68
2024/01/19 03:34:01;;;;;;;3.13;2.53;;;;;;;8.34;nan;98426.56;5099153;28;20206;-68
2024/01/19 03:36:27;;;;;;;3.80;3.50;;;;;;;8.35;nan;98418.00;5098914;28;20567;-67
2024/01/19 03:38:54;;;;;;;2.53;1.70;;;;;;;8.24;nan;98386.91;5098015;28;20253;-67
2024/01/19 03:41:21;;;;;;;2.53;2.30;;;;;;;8.36;nan;98417.13;5097648;28;20257;-68
2024/01/19 03:43:48;;;;;;;3.03;2.40;;;;;;;8.35;nan;98412.06;5101076;28;20203;-69
2024/01/19 03:46:14;;;;;;;3.53;2.37;;;;;;;8.29;nan;98420.78;5098169;28;20326;-68
2024/01/19 03:48:41;;;;;;;4.17;2.97;;;;;;;8.30;nan;98422.44;5109637;28;20209;-67
2024/01/19 03:51:09;;;;;;;2.90;2.80;;;;;;;8.28;nan;98424.22;5109378;28;20198;-68
2024/01/19 03:53:36;;;;;;;4.13;2.67;;;;;;;8.29;nan;98425.91;5103273;28;20199;-68
2024/01/19 03:56:02;;;;;;;2.97;2.80;;;;;;;8.25;nan;98419.22;5103098;28;20194;-68
2024/01/19 03:58:29;;;;;;;2.90;2.70;;;;;;;8.19;nan;98418.59;5096747;28;20251;-67
2024/01/19 04:00:56;;;;;;;3.00;2.80;;;;;;;8.11;nan;98395.09;5105280;28;20600;-68
2024/01/19 04:03:23;;;;;;;2.73;2.43;;;;;;;8.18;nan;98402.44;5101450;28;20637;-68
2024/01/19 04:05:49;;;;;;;2.50;2.23;;;;;;;8.27;nan;98407.19;5102986;28;20207;-68
2024/01/19 04:08:17;;;;;;;1.80;1.80;;;;;;;8.20;nan;98399.84;5095162;28;20207;-68
2024/01/19 04:10:45;;;;;;;2.50;2.40;;;;;;;8.29;nan;98407.19;5101091;28;20194;-67
2024/01/19 04:13:12;;;;;;;1.87;1.77;;;;;;;8.27;nan;98402.09;5107661;28;20205;-67
2024/01/19 04:15:39;;;;;;;2.33;2.23;;;;;;;8.24;nan;98401.41;5103491;28;20284;-68
2024/01/19 04:18:05;;;;;;;7.97;3.90;;;;;;;8.23;nan;98400.56;5102340;28;20593;-68
2024/01/19 04:20:31;;;;;;;8.07;2.53;;;;;;;8.27;nan;98407.19;5103644;28;20202;-68
2024/01/19 04:22:58;;;;;;;2.47;1.40;;;;;;;8.14;nan;98405.97;5100832;28;20544;-68
2024/01/19 04:25:26;;;;;;;3.03;2.93;;;;;;;8.15;nan;98407.66;5097830;28;20202;-67
2024/01/19 04:27:53;;;;;;;2.83;2.60;;;;;;;8.13;nan;98399.22;5104357;28;20206;-67
2024/01/19 04:30:20;;;;;;;2.87;1.67;;;;;;;8.21;nan;98396.38;5102068;28;20191;-68
2024/01/19 04:32:46;;;;;;;2.47;2.33;;;;;;;8.13;nan;98406.91;5099335;28;20248;-68
2024/01/19 04:35:13;;;;;;;1.70;1.63;;;;;;;8.21;nan;98397.22;5103904;28;20244;-68
2024/01/19 04:37:40;;;;;;;2.20;2.10;;;;;;;8.21;nan;98401.50;5100620;28;20226;-68
2024/01/19 04:40:07;;;;;;;4.57;4.13;;;;;;;8.23;nan;98405.69;5106073;28;20255;-68
2024/01/19 04:42:35;;;;;;;2.63;2.43;;;;;;;8.11;nan;98397.63;5100039;28;20244;-68
2024/01/19 04:45:02;;;;;;;2.33;2.13;;;;;;;8.19;nan;98413.50;5100219;28;20199;-68
2024/01/19 04:47:30;;;;;;;1.90;1.87;;;;;;;8.18;nan;98412.66;5103967;28;20641;-69
2024/01/19 04:49:57;;;;;;;12.00;1.77;;;;;;;8.17;nan;98416.13;5102904;28;20199;-68
2024/01/19 04:52:24;;;;;;;1.60;1.50;;;;;;;8.17;nan;98416.13;5098424;28;20219;-68
2024/01/19 04:54:51;;;;;;;2.67;2.43;;;;;;;8.17;nan;98420.38;5100472;28;20251;-67
2024/01/19 04:57:17;;;;;;;2.60;2.40;;;;;;;8.14;nan;98425.59;5101475;28;20245;-68
2024/01/19 04:59:45;;;;;;;2.47;2.07;;;;;;;8.12;nan;98423.09;5102948;28;20200;-68
2024/01/19 05:02:12;;;;;;;3.00;2.80;;;;;;;8.08;nan;98430.94;5093996;28;20659;-68
2024/01/19 05:04:39;;;;;;;1.90;1.80;;;;;;;7.91;nan;98442.56;5097754;28;20264;-68
2024/01/19 05:07:05;;;;;;;2.03;2.00;;;;;;;7.91;nan;98449.38;5095706;28;20256;-67
2024/01/19 05:09:32;;;;;;;3.03;1.77;;;;;;;7.90;nan;98445.16;5099687;28;20254;-67
2024/01/19 05:11:59;;;;;;;3.13;2.43;;;;;;;7.92;nan;98456.97;5095755;28;20249;-67
2024/01/19 05:14:25;;;;;;;1.97;1.87;;;;;;;7.76;nan;98445.63;5102113;28;20194;-68
2024/01/19 05:16:54;;;;;;;2.50;2.40;;;;;;;7.75;nan;98450.78;5090091;28;20223;-67
2024/01/19 05:19:20;;;;;;;2.53;1.80;;;;;;;7.72;nan;98453.44;5095117;28;20191;-67
2024/01/19 05:21:47;;;;;;;2.33;2.23;;;;;;;7.73;nan;98445.72;5094002;28;20211;-67
2024/01/19 05:24:14;;;;;;;3.07;1.73;;;;;;;7.72;nan;98453.44;5097288;28;20191;-68
2024/01/19 05:26:41;;;;;;;3.30;2.13;;;;;;;7.58;nan;98445.41;5096595;28;20198;-67
2024/01/19 05:29:07;;;;;;;2.10;1.90;;;;;;;7.55;nan;98436.16;5092181;28;20203;-68
2024/01/19 05:31:34;;;;;;;2.70;1.90;;;;;;;7.54;nan;98447.22;5100138;28;20207;-67
2024/01/19 05:34:02;;;;;;;4.47;2.87;;;;;;;7.57;nan;98449.66;5099142;28;20225;-68
2024/01/19 05:36:29;;;;;;;3.00;2.80;;;;;;;7.58;nan;98450.50;5095727;28;20714;-67
2024/01/19 05:38:56;;;;;;;5.63;1.73;;;;;;;7.50;nan;98457.56;5101358;28;20267;-68
2024/01/19 05:41:22;;;;;;;1.73;1.63;;;;;;;7.39;nan;98465.56;5098048;28;20742;-67
2024/01/19 05:43:49;;;;;;;1.90;1.77;;;;;;;7.39;nan;98476.63;5100731;28;20294;-68
2024/01/19 05:46:16;;;;;;;1.57;1.57;;;;;;;7.30;nan;98496.47;5106945;28;20252;-68
2024/01/19 05:48:43;;;;;;;1.40;1.40;;;;;;;7.33;nan;98465.78;5104827;28;20267;-68
2024/01/19 05:51:15;;;;;;;2.97;2.07;;;;;;;7.23;nan;98479.69;5105390;28;20685;-68
2024/01/19 05:53:42;;;;;;;2.07;1.97;;;;;;;7.13;nan;98463.84;5100655;28;20191;-68
2024/01/19 05:56:09;;;;;;;1.73;1.63;;;;;;;7.29;nan;98499.88;5098106;28;20199;-68
2024/01/19 05:58:36;;;;;;;2.13;2.03;;;;;;;7.18;nan;98492.56;5108171;28;20199;-68
2024/01/19 06:01:03;;;;;;;1.63;1.60;;;;;;;7.33;nan;98517.56;5108189;28;20263;-68
2024/01/19 06:03:30;;;;;;;1.07;1.07;;;;;;;7.29;nan;98503.28;5110404;28;20199;-68
2024/01/19 06:05:57;;;;;;;2.50;2.30;;;;;;;7.22;nan;98504.34;5104668;28;20195;-68
2024/01/19 06:08:25;;;;;;;1.93;1.93;;;;;;;7.30;nan;98509.22;5094257;28;20214;-68
2024/01/19 06:10:52;;;;;;;2.50;2.40;;;;;;;7.21;nan;98507.75;5101775;28;20261;-69
2024/01/19 06:13:19;;;;;;;2.20;2.10;;;;;;;7.24;nan;98506.84;5093743;28;20629;-70
2024/01/19 06:15:45;;;;;;;2.27;1.40;;;;;;;7.23;nan;98511.13;5093509;28;20239;-70
2024/01/19 06:18:12;;;;;;;2.57;2.43;;;;;;;7.26;nan;98516.13;5096224;28;20667;-71
2024/01/19 06:20:41;;;;;;;2.37;2.30;;;;;;;7.27;nan;98511.88;5089106;28;20875;-70
2024/01/19 06:23:08;;;;;;;1.43;1.40;;;;;;;7.32;nan;98515.09;5102842;28;20209;-71
2024/01/19 06:25:36;;;;;;;1.40;1.40;;;;;;;7.26;nan;98488.09;5098068;28;20206;-70
2024/01/19 06:28:04;;;;;;;2.97;2.20;;;;;;;7.32;nan;98507.44;5095197;28;20276;-71
2024/01/19 06:30:30;;;;;;;1.83;1.83;;;;;;;7.40;nan;98508.84;5092049;28;20738;-70
2024/01/19 06:32:57;;;;;;;9.63;2.40;;;;;;;7.38;nan;98513.19;5096726;28;20203;-68
2024/01/19 06:35:24;;;;;;;3.30;2.27;;;;;;;7.46;nan;98512.13;5100856;28;20253;-68
2024/01/19 06:37:51;;;;;;;2.30;2.20;;;;;;;7.52;nan;98517.00;5093472;28;20199;-68
2024/01/19 06:40:18;;;;;;;2.57;2.37;;;;;;;7.52;nan;98522.94;5094837;28;20199;-68
2024/01/19 06:42:46;;;;;;;3.07;2.47;;;;;;;7.53;nan;98534.00;5105546;28;20194;-68
2024/01/19 06:45:16;;;;;;;4.73;2.30;;;;;;;7.55;nan;98537.31;5102995;28;20682;-68
2024/01/19 06:47:42;;;;;;;2.67;2.47;;;;;;;7.57;nan;98546.56;5097770;28;20211;-68
2024/01/19 06:50:10;;;;;;;6.37;1.77;;;;;;;7.52;nan;98542.50;5099315;28;20199;-70
2024/01/19 06:52:37;;;;;;;2.70;1.70;;;;;;;7.53;nan;98532.25;5095414;28;20257;-71
2024/01/19 06:55:04;;;;;;;2.33;2.33;;;;;;;7.71;nan;98536.78;5102405;28;20203;-69
2024/01/19 06:57:31;;;;;;;2.07;1.77;;;;;;;7.74;nan;98533.28;5106410;28;20190;-68
2024/01/19 06:59:59;;;;;;;1.80;1.67;;;;;;;7.74;nan;98534.13;5107384;28;20210;-69
2024/01/19 07:02:26;;;;;;;1.50;1.43;;;;;;;7.77;nan;98528.91;5107685;28;20191;-67
2024/01/19 07:04:53;;;;;;;2.20;2.03;;;;;;;7.81;nan;98529.66;5101880;28;20249;-69
2024/01/19 07:07:19;;;;;;;2.93;2.73;;;;;;;7.87;nan;98537.09;5102840;28;20235;-68
2024/01/19 07:09:46;;;;;;;2.33;2.00;;;;;;;7.92;nan;98532.66;5096638;28;20221;-68
2024/01/19 07:12:15;;;;;;;6.63;2.47;;;;;;;8.02;nan;98544.25;5106510;28;20676;-69
2024/01/19 07:14:41;;;;;;;4.50;1.90;;;;;;;7.97;nan;98541.03;5102088;28;20210;-68
2024/01/19 07:17:09;;;;;;;4.00;2.07;;;;;;;8.07;nan;98536.44;5095378;28;20230;-68
2024/01/19 07:19:36;;;;;;;2.17;2.07;;;;;;;8.17;nan;98532.69;5107284;28;20245;-68
2024/01/19 07:22:03;;;;;;;2.50;2.40;;;;;;;8.24;nan;98524.75;5099949;28;20208;-68
2024/01/19 07:24:32;;;;;;;5.10;3.23;;;;;;;8.32;nan;98525.38;5102046;28;20200;-68
2024/01/19 07:26:59;;;;;;;1.87;1.80;;;;;;;8.38;nan;98522.59;5104266;28;20241;-68
2024/01/19 07:29:27;;;;;;;3.47;3.10;;;;;;;8.43;nan;98514.78;5095875;28;20260;-68
2024/01/19 07:31:54;;;;;;;2.17;2.07;;;;;;;8.53;nan;98512.72;5104477;28;20736;-67
2024/01/19 07:34:23;;;;;;;1.97;1.90;;;;;;;8.60;nan;98521.81;5104431;28;20201;-67
2024/01/19 07:36:50;;;;;;;3.27;2.97;;;;;;;8.65;nan;98519.94;5100042;28;20207;-68
2024/01/19 07:39:18;;;;;;;2.47;2.37;;;;;;;8.65;nan;98499.50;5100639;28;20260;-67
2024/01/19 07:41:45;;;;;;;2.00;1.90;;;;;;;8.83;nan;98519.25;5095154;28;20207;-67
2024/01/19 07:44:12;;;;;;;3.10;2.53;;;;;;;8.92;nan;98518.91;5100370;28;20204;-68
2024/01/19 07:46:40;;;;;;;4.37;3.87;;;;;;;9.06;nan;98511.56;5098236;28;20200;-68
2024/01/19 07:49:07;;;;;;;2.30;2.20;;;;;;;9.13;nan;98517.28;5102257;28;20223;-68
2024/01/19 07:51:35;;;;;;;2.97;2.77;;;;;;;9.20;nan;98506.75;5098133;28;20253;-69
2024/01/19 07:54:02;;;;;;;3.97;2.27;;;;;;;9.23;nan;98511.75;5101981;28;20204;-68
2024/01/19 07:56:29;;;;;;;2.40;2.30;;;;;;;9.32;nan;98503.72;5097002;28;20651;-68
2024/01/19 07:58:57;;;;;;;1.80;1.70;;;;;;;9.37;nan;98504.34;5101476;28;20200;-69
2024/01/19 08:01:24;;;;;;;3.37;3.13;;;;;;;9.45;nan;98515.13;5100358;28;20675;-68
2024/01/19 08:03:51;;;;;;;2.17;2.07;;;;;;;9.61;nan;98517.06;5102944;28;20203;-68
2024/01/19 08:06:18;;;;;;;2.17;2.07;;;;;;;9.65;nan;98516.06;5097608;28;20589;-68
2024/01/19 08:08:46;;;;;;;2.30;2.20;;;;;;;9.77;nan;98530.91;5101222;28;20219;-68
2024/01/19 08:11:13;;;;;;;3.20;2.97;;;;;;;9.85;nan;98541.69;5093117;28;20195;-68
2024/01/19 08:13:40;;;;;;;18.60;7.13;;;;;;;9.95;nan;98536.09;5102034;28;20206;-69
2024/01/19 08:16:07;;;;;;;6.70;4.73;;;;;;;10.11;nan;98540.59;5100282;28;20694;-68
2024/01/19 08:18:36;;;;;;;4.00;3.70;;;;;;;10.28;nan;98539.00;5097470;28;20191;-69
2024/01/19 08:21:03;;;;;;;2.77;2.67;;;;;;;10.40;nan;98543.59;5099326;28;20215;-68
2024/01/19 08:23:30;;;;;;;5.17;1.90;;;;;;;10.41;nan;98535.03;5098612;28;20256;-68
2024/01/19 08:25:58;;;;;;;1.57;1.47;;;;;;;10.61;nan;98541.00;5101304;28;20191;-68
2024/01/19 08:28:25;;;;;;;2.80;1.93;;;;;;;10.72;nan;98549.06;5098762;28;20215;-68
2024/01/19 08:30:52;;;;;;;2.60;2.40;;;;;;;10.72;nan;98549.91;5099220;28;20198;-69
2024/01/19 08:33:19;;;;;;;2.50;2.40;;;;;;;10.85;nan;98545.06;5099297;28;20651;-68
2024/01/19 08:35:46;;;;;;;2.37;2.27;;;;;;;10.89;nan;98544.00;5100263;28;20294;-69
2024/01/19 08:38:14;;;;;;;1.97;1.87;;;;;;;11.03;nan;98554.50;5095966;28;20245;-68
2024/01/19 08:40:42;;;;;;;3.27;2.00;;;;;;;11.18;nan;98558.09;5099118;28;20720;-68
2024/01/19 08:43:10;;;;;;;2.83;2.13;;;;;;;11.29;nan;98550.72;5103219;28;20196;-68
2024/01/19 08:45:37;;;;;;;1.83;1.73;;;;;;;11.35;nan;98560.69;5094411;28;20203;-68
2024/01/19 08:48:05;;;;;;;1.87;1.77;;;;;;;11.55;nan;98563.16;5091672;28;20751;-68
2024/01/19 08:50:31;;;;;;;7.70;2.37;;;;;;;11.65;nan;98566.13;5102550;28;20206;-69
2024/01/19 08:52:58;;;;;;;2.37;2.17;;;;;;;11.80;nan;98563.69;5102539;28;20194;-69
2024/01/19 08:55:25;;;;;;;2.67;2.47;;;;;;;11.94;nan;98570.72;5100795;28;20621;-69
2024/01/19 08:57:52;;;;;;;2.77;2.47;;;;;;;12.13;nan;98571.47;5096929;28;20247;-68
2024/01/19 09:00:20;;;;;;;4.03;2.40;;;;;;;12.23;nan;98567.56;5096636;28;20225;-69
2024/01/19 09:02:48;;;;;;;2.60;2.40;;;;;;;12.32;nan;98571.38;5099239;28;20204;-69
2024/01/19 09:05:15;;;;;;;3.47;2.10;;;;;;;12.38;nan;98571.06;5094201;28;20194;-68
2024/01/19 09:07:42;;;;;;;6.13;2.00;;;;;;;12.47;nan;98566.31;5102141;28;20281;-68
2024/01/19 09:10:10;;;;;;;2.40;2.30;;;;;;;12.62;nan;98560.41;5102296;28;20214;-68
2024/01/19 09:12:37;;;;;;;1.57;1.53;;;;;;;12.81;nan;98547.41;5101042;28;20625;-68
2024/01/19 09:15:04;;;;;;;2.13;2.03;;;;;;;12.97;nan;98549.97;5091842;28;20196;-69
2024/01/19 09:17:33;;;;;;;1.40;1.40;;;;;;;13.15;nan;98551.59;5089158;28;20265;-68
2024/01/19 09:20:02;;;;;;;1.67;1.57;;;;;;;13.23;nan;98558.91;5094135;28;20198;-69
2024/01/19 09:22:30;;;;;;;2.03;1.93;;;;;;;13.41;nan;98563.88;5095785;28;20242;-69
2024/01/19 09:24:57;;;;;;;2.20;2.00;;;;;;;13.58;nan;98563.78;5100809;28;20286;-69
2024/01/19 09:27:24;;;;;;;1.40;1.40;;;;;;;13.70;nan;98561.47;5098558;28;20197;-69
2024/01/19 09:29:50;;;;;;;2.33;2.23;;;;;;;13.83;nan;98565.81;5103385;28;20214;-69
2024/01/19 09:32:17;;;;;;;1.77;1.60;;;;;;;13.90;nan;98571.44;5094580;28;20202;-69
2024/01/19 09:34:46;;;;;;;2.10;1.50;;;;;;;14.12;nan;98564.97;5101317;28;20718;-69
2024/01/19 09:37:13;;;;;;;1.93;1.80;;;;;;;14.26;nan;98553.88;5092838;28;20826;-69
2024/01/19 09:39:40;;;;;;;2.00;1.50;;;;;;;14.41;nan;98562.50;5099391;28;20247;-69
2024/01/19 09:42:09;;;;;;;1.87;1.77;;;;;;;14.51;nan;98551.53;5094752;28;20210;-69
2024/01/19 09:44:37;;;;;;;1.77;1.67;;;;;;;14.66;nan;98530.00;5096460;28;20348;-69
2024/01/19 09:47:18;;;;;;;1.10;1.10;;;;;;;14.72;nan;98533.94;5094079;28;20254;-69
2024/01/19 09:50:00;;;;;;;1.30;1.30;;;;;;;14.64;nan;98516.34;5088526;28;20220;-70
2024/01/19 09:52:47;;;;;;;1.80;1.70;;;;;;;14.79;nan;98524.09;5097913;28;20210;-70
2024/01/19 09:55:16;;;;;;;1.93;1.83;;;;;;;14.88;nan;98523.53;5097411;28;20203;-70
2024/01/19 09:57:46;;;;;;;1.70;1.60;;;;;;;14.88;nan;98519.19;5086253;28;20199;-70
2024/01/19 10:00:14;;;;;;;2.07;1.97;;;;;;;14.94;nan;98513.66;5096546;28;20198;-69
2024/01/19 10:02:46;;;;;;;1.80;1.70;;;;;;;14.99;nan;98513.38;5095564;28;20206;-70
2024/01/19 10:05:15;;;;;;;10.20;2.63;;;;;;;14.98;nan;98499.63;5090242;28;20287;-69
2024/01/19 10:07:43;;;;;;;2.30;2.20;;;;;;;15.20;nan;98522.34;5088167;28;20217;-69
2024/01/19 10:10:11;;;;;;;5.17;1.63;;;;;;;15.25;nan;98523.72;5092168;28;20268;-70
2024/01/19 10:12:38;;;;;;;1.80;1.70;;;;;;;15.41;nan;98523.56;5097147;28;20195;-70
2024/01/19 10:15:07;;;;;;;1.87;1.77;;;;;;;15.42;nan;98519.22;5089630;28;20267;-68
2024/01/19 10:17:40;;;;;;;2.70;2.53;;;;;;;15.50;nan;98517.88;5092907;28;20440;-65
2024/01/19 10:20:15;;;;;;;1.70;1.60;;;;;;;15.64;nan;98525.53;5095785;28;20207;-65
2024/01/19 10:22:44;;;;;;;2.67;2.50;;;;;;;15.67;nan;98520.19;5091522;28;20198;-66
2024/01/19 10:25:13;;;;;;;1.83;1.77;;;;;;;15.73;nan;98518.97;5099442;28;20568;-66
2024/01/19 10:27:42;;;;;;;1.93;1.83;;;;;;;15.73;nan;98499.09;5094320;28;20256;-65
2024/01/19 10:30:11;;;;;;;2.17;1.60;;;;;;;15.85;nan;98507.00;5102901;28;20317;-65
2024/01/19 10:32:39;;;;;;;2.43;2.33;;;;;;;15.88;nan;98509.38;5100809;28;20199;-66
2024/01/19 10:35:07;;;;;;;2.20;1.30;;;;;;;15.97;nan;98511.34;5106585;28;20674;-66
2024/01/19 10:37:34;;;;;;;1.53;1.43;;;;;;;16.07;nan;98502.88;5093030;28;20200;-66
2024/01/19 10:40:18;;;;;;;1.07;1.07;;;;;;;16.18;nan;98504.75;5092343;28;20207;-66
2024/01/19 10:42:46;;;;;;;0.73;0.73;;;;;;;16.22;nan;98507.03;5103309;28;20203;-66
2024/01/19 10:45:18;;;;;;;1.30;1.20;;;;;;;16.31;nan;98510.78;5092538;28;20683;-65
2024/01/19 10:47:46;;;;;;;3.70;1.93;;;;;;;16.35;nan;98496.69;5091251;28;20595;-66
2024/01/19 10:50:14;;;;;;;1.20;1.20;;;;;;;16.44;nan;98485.72;5091947;28;20245;-65
2024/01/19 10:52:43;;;;;;;1.30;1.30;;;;;;;16.42;nan;98471.22;5096337;28;20754;-66
2024/01/19 10:55:11;;;;;;;1.33;1.27;;;;;;;16.51;nan;98488.72;5093536;28;20203;-66
2024/01/19 10:57:39;;;;;;;1.20;1.20;;;;;;;16.55;nan;98480.66;5094358;28;20199;-66
2024/01/19 11:00:30;;;;;;;1.43;1.43;;;;;;;16.58;nan;98482.19;5105868;28;20247;-65
2024/01/19 11:02:58;;;;;;;1.33;1.33;;;;;;;16.58;nan;98480.44;5087744;28;20253;-67
2024/01/19 11:05:26;;;;;;;1.47;1.47;;;;;;;16.45;nan;98451.16;5093257;28;20257;-66
2024/01/19 11:07:54;;;;;;;1.00;1.00;;;;;;;16.63;nan;98454.25;5102645;28;20221;-65
2024/01/19 11:10:21;;;;;;;1.50;1.30;;;;;;;16.71;nan;98455.38;5097976;28;20220;-66
2024/01/19 11:12:55;;;;;;;1.00;1.00;;;;;;;16.77;nan;98459.28;5101972;28;20204;-65
2024/01/19 11:15:34;;;;;;;1.70;1.70;;;;;;;16.79;nan;98453.09;5098851;28;20215;-66
2024/01/19 11:18:04;;;;;;;1.40;1.40;;;;;;;16.87;nan;98451.69;5091726;28;20200;-65
2024/01/19 11:20:34;;;;;;;4.00;2.00;;;;;;;16.92;nan;98447.03;5108343;28;20240;-65
2024/01/19 11:23:05;;;;;;;2.17;2.07;;;;;;;16.97;nan;98452.69;5092379;28;20208;-66
2024/01/19 11:25:41;;;;;;;1.47;1.40;;;;;;;16.89;nan;98449.84;5099402;28;20194;-65
2024/01/19 11:28:19;;;;;;;0.80;0.80;;;;;;;16.88;nan;98458.53;5094345;28;20252;-65
2024/01/19 11:31:01;;;;;;;1.50;1.47;;;;;;;16.72;nan;98438.91;5090500;28;20199;-65
2024/01/19 11:33:30;;;;;;;1.30;1.23;;;;;;;16.93;nan;98456.47;5094190;28;20187;-65
2024/01/19 11:35:57;;;;;;;1.37;1.30;;;;;;;16.95;nan;98452.00;5092450;28;20228;-65
2024/01/19 11:38:45;;;;;;;1.10;1.10;;;;;;;16.94;nan;98442.56;5092398;28;20205;-65
2024/01/19 11:41:44;;;;;;;1.30;1.20;;;;;;;17.03;nan;98439.31;5098078;28;20199;-65
2024/01/19 11:44:40;;;;;;;1.60;1.07;;;;;;;17.08;nan;98445.00;5093029;28;20254;-66
2024/01/19 11:47:07;;;;;;;0.93;0.93;;;;;;;17.03;nan;98440.16;5092484;28;20291;-65
2024/01/19 11:49:47;;;;;;;1.13;1.13;;;;;;;17.16;nan;98448.69;5092005;28;20215;-66
2024/01/19 11:52:40;;;;;;;1.10;1.10;;;;;;;17.15;nan;98431.53;5092674;28;20747;-65
2024/01/19 11:55:41;;;;;;;1.00;1.00;;;;;;;17.17;nan;98424.47;5106622;28;20253;-65
2024/01/19 11:58:28;;;;;;;0.93;0.90;;;;;;;17.22;nan;98431.91;5110934;28;20204;-65
2024/01/19 12:00:57;;;;;;;2.83;1.10;;;;;;;17.23;nan;98438.72;5092345;28;20207;-65